Terminal Aerodrome Forecast
Issued by NWS

Home | Current Version | Previous Version | Text Only | Print | Product List | Glossary On
Versions: 1 2 3 4 5 6 7 8 9 10 11 12 13 14 15 16 17 18 19 20 21
000
FTUS44 KTSA 281237 AAA
TAFFYV
TAF AMD
KFYV 281237Z 2813/2912 00000KT P6SM SCT015
      TEMPO 2813/2817 BKN015
     FM281700 12007KT P6SM SCT025
     FM290300 12011KT P6SM BKN050 PROB30 2908/2912 4SM -TSRA
      BKN025CB=

USA.gov is the U.S. government's official web portal to all federal, state and local government web resources and services.